DLH88P LFMN-EDDF
Flight info
| Callsign | DLH88P |
|---|---|
| Flight time | 1h 10m |
| Altitude | 38000 |
| Route | BASIP DCT ANAKI DCT ABESI DCT LADOL T163 EMPAX EMPAX5B |
| Aircraft | A321/M-SDE3FGHIRWY/LB1 |
Departure
| Time | 2026-05-06 04:51 |
|---|---|
| Airport | Nice-Côte d'Azur Airport (LFMN) |
Arrival
| Time | 2026-05-06 06:01 |
|---|---|
| Airport | Frankfurt Main Airport (EDDF) |
| Time | Latitude | Longitude | Altitude | Speed | Heading |
|---|---|---|---|---|---|
| 2026-05-06 04:35 | 43.66473 | 7.21499 | 29 ft | 0 kts | 315° |
| 2026-05-06 04:40 | 43.66472 | 7.21500 | 29 ft | 0 kts | 315° |
| 2026-05-06 04:40 | 43.66466 | 7.21508 | 29 ft | 2 kts | 315° |
| 2026-05-06 04:40 | 43.66456 | 7.21523 | 29 ft | 2 kts | 315° |
| 2026-05-06 04:41 | 43.66449 | 7.21532 | 28 ft | 1 kts | 315° |
| 2026-05-06 04:41 | 43.66441 | 7.21545 | 28 ft | 1 kts | 292° |
| 2026-05-06 04:41 | 43.66438 | 7.21562 | 27 ft | 1 kts | 264° |
| 2026-05-06 04:41 | 43.66442 | 7.21579 | 27 ft | 1 kts | 234° |
| 2026-05-06 04:42 | 43.66448 | 7.21587 | 27 ft | 1 kts | 216° |
| 2026-05-06 04:42 | 43.66452 | 7.21593 | 27 ft | 0 kts | 225° |
| 2026-05-06 04:44 | 43.66452 | 7.21592 | 27 ft | 0 kts | 225° |
| 2026-05-06 04:44 | 43.66423 | 7.21548 | 27 ft | 10 kts | 225° |
| 2026-05-06 04:45 | 43.66380 | 7.21490 | 28 ft | 11 kts | 224° |
| 2026-05-06 04:45 | 43.66328 | 7.21402 | 28 ft | 12 kts | 224° |
| 2026-05-06 04:45 | 43.66251 | 7.21296 | 26 ft | 21 kts | 225° |
| 2026-05-06 04:45 | 43.66128 | 7.21127 | 22 ft | 25 kts | 225° |
| 2026-05-06 04:46 | 43.65958 | 7.20893 | 19 ft | 26 kts | 225° |
| 2026-05-06 04:46 | 43.65837 | 7.20738 | 18 ft | 23 kts | 225° |
| 2026-05-06 04:46 | 43.65765 | 7.20639 | 18 ft | 21 kts | 224° |
| 2026-05-06 04:46 | 43.65659 | 7.20494 | 16 ft | 20 kts | 225° |
| 2026-05-06 04:47 | 43.65526 | 7.20311 | 13 ft | 18 kts | 225° |
| 2026-05-06 04:47 | 43.65471 | 7.20234 | 10 ft | 10 kts | 225° |
| 2026-05-06 04:47 | 43.65406 | 7.20176 | 10 ft | 12 kts | 184° |
| 2026-05-06 04:47 | 43.65306 | 7.20258 | 10 ft | 13 kts | 135° |
| 2026-05-06 04:48 | 43.65260 | 7.20321 | 10 ft | 14 kts | 135° |
| 2026-05-06 04:48 | 43.65187 | 7.20422 | 10 ft | 15 kts | 135° |
| 2026-05-06 04:48 | 43.65123 | 7.20500 | 10 ft | 12 kts | 155° |
| 2026-05-06 04:48 | 43.65035 | 7.20501 | 10 ft | 13 kts | 204° |
| 2026-05-06 04:49 | 43.64959 | 7.20417 | 10 ft | 14 kts | 224° |
| 2026-05-06 04:49 | 43.64883 | 7.20313 | 9 ft | 16 kts | 225° |
| 2026-05-06 04:49 | 43.64787 | 7.20187 | 7 ft | 12 kts | 210° |
| 2026-05-06 04:49 | 43.64738 | 7.20191 | 7 ft | 9 kts | 147° |
| 2026-05-06 04:50 | 43.64699 | 7.20242 | 8 ft | 5 kts | 134° |
| 2026-05-06 04:50 | 43.64693 | 7.20264 | 9 ft | 2 kts | 68° |
| 2026-05-06 04:50 | 43.64734 | 7.20331 | 9 ft | 30 kts | 45° |
| 2026-05-06 04:50 | 43.65083 | 7.20808 | 12 ft | 107 kts | 45° |
| 2026-05-06 04:51 | 43.65750 | 7.21721 | 165 ft | 151 kts | 43° |
| 2026-05-06 04:51 | 43.66441 | 7.22785 | 798 ft | 153 kts | 62° |
| 2026-05-06 04:51 | 43.66453 | 7.24263 | 1324 ft | 163 kts | 114° |
| 2026-05-06 04:51 | 43.65694 | 7.25475 | 1623 ft | 175 kts | 134° |
| 2026-05-06 04:52 | 43.64787 | 7.26718 | 1893 ft | 191 kts | 133° |
| 2026-05-06 04:52 | 43.63828 | 7.28074 | 2206 ft | 207 kts | 133° |
| 2026-05-06 04:52 | 43.62979 | 7.29759 | 2529 ft | 222 kts | 107° |
| 2026-05-06 04:52 | 43.62908 | 7.31867 | 3095 ft | 224 kts | 75° |
| 2026-05-06 04:53 | 43.63365 | 7.33859 | 3904 ft | 221 kts | 68° |
| 2026-05-06 04:53 | 43.63936 | 7.35824 | 4580 ft | 226 kts | 68° |
| 2026-05-06 04:53 | 43.64721 | 7.38548 | 5485 ft | 232 kts | 70° |
| 2026-05-06 04:53 | 43.65291 | 7.40629 | 6136 ft | 238 kts | 71° |
| 2026-05-06 04:54 | 43.65861 | 7.42771 | 6931 ft | 239 kts | 72° |
| 2026-05-06 04:54 | 43.66425 | 7.44929 | 7630 ft | 245 kts | 72° |
| 2026-05-06 04:54 | 43.66808 | 7.46399 | 8099 ft | 250 kts | 72° |
| 2026-05-06 04:54 | 43.67606 | 7.49448 | 9049 ft | 257 kts | 72° |
| 2026-05-06 04:55 | 43.68019 | 7.51009 | 9366 ft | 267 kts | 72° |
| 2026-05-06 04:55 | 43.68673 | 7.53477 | 9793 ft | 284 kts | 72° |
| 2026-05-06 04:55 | 43.69615 | 7.57024 | 10337 ft | 308 kts | 72° |
| 2026-05-06 04:55 | 43.70119 | 7.58925 | 10618 ft | 320 kts | 72° |
| 2026-05-06 04:56 | 43.71167 | 7.62882 | 11110 ft | 344 kts | 72° |
| 2026-05-06 04:56 | 43.71999 | 7.66019 | 11652 ft | 354 kts | 72° |
| 2026-05-06 04:56 | 43.72572 | 7.68169 | 12143 ft | 357 kts | 72° |
| 2026-05-06 04:56 | 43.73637 | 7.71274 | 12847 ft | 364 kts | 62° |
| 2026-05-06 04:57 | 43.75082 | 7.74123 | 13530 ft | 370 kts | 52° |
| 2026-05-06 04:57 | 43.76789 | 7.76835 | 14225 ft | 375 kts | 49° |
| 2026-05-06 04:57 | 43.78551 | 7.79509 | 14898 ft | 379 kts | 49° |
| 2026-05-06 04:57 | 43.80900 | 7.83104 | 15743 ft | 386 kts | 50° |
| 2026-05-06 04:58 | 43.82710 | 7.85916 | 16407 ft | 389 kts | 50° |
| 2026-05-06 04:58 | 43.84491 | 7.88711 | 17058 ft | 392 kts | 50° |
| 2026-05-06 04:58 | 43.85690 | 7.90599 | 17469 ft | 395 kts | 50° |
| 2026-05-06 04:58 | 43.87506 | 7.93474 | 18071 ft | 399 kts | 52° |
| 2026-05-06 04:59 | 43.89198 | 7.96481 | 18657 ft | 401 kts | 57° |
| 2026-05-06 04:59 | 43.90723 | 7.99739 | 19238 ft | 404 kts | 62° |
| 2026-05-06 04:59 | 43.92590 | 8.04266 | 19914 ft | 410 kts | 63° |
| 2026-05-06 04:59 | 43.93508 | 8.06546 | 20247 ft | 414 kts | 63° |
| 2026-05-06 05:00 | 43.94924 | 8.10065 | 20736 ft | 419 kts | 63° |
| 2026-05-06 05:00 | 43.96346 | 8.13586 | 21217 ft | 424 kts | 63° |
| 2026-05-06 05:00 | 43.97797 | 8.17171 | 21683 ft | 429 kts | 63° |
| 2026-05-06 05:00 | 43.99762 | 8.22013 | 22282 ft | 436 kts | 63° |
| 2026-05-06 05:01 | 44.01256 | 8.25699 | 22723 ft | 441 kts | 62° |
| 2026-05-06 05:01 | 44.02757 | 8.29402 | 23184 ft | 445 kts | 62° |
| 2026-05-06 05:01 | 44.04266 | 8.33133 | 23639 ft | 449 kts | 62° |
| 2026-05-06 05:01 | 44.05289 | 8.35660 | 23932 ft | 452 kts | 62° |
| 2026-05-06 05:02 | 44.06840 | 8.39492 | 24399 ft | 456 kts | 62° |
| 2026-05-06 05:02 | 44.08381 | 8.43308 | 24882 ft | 458 kts | 63° |
| 2026-05-06 05:02 | 44.09950 | 8.47203 | 25371 ft | 461 kts | 62° |
| 2026-05-06 05:02 | 44.11510 | 8.51085 | 25789 ft | 464 kts | 63° |
| 2026-05-06 05:03 | 44.13092 | 8.55021 | 26203 ft | 467 kts | 62° |
| 2026-05-06 05:03 | 44.14673 | 8.58966 | 26610 ft | 470 kts | 63° |
| 2026-05-06 05:03 | 44.16250 | 8.62900 | 27020 ft | 473 kts | 63° |
| 2026-05-06 05:03 | 44.17860 | 8.66907 | 27423 ft | 476 kts | 62° |
| 2026-05-06 05:04 | 44.19865 | 8.70567 | 27733 ft | 482 kts | 43° |
| 2026-05-06 05:04 | 44.22625 | 8.73122 | 28063 ft | 479 kts | 21° |
| 2026-05-06 05:04 | 44.25798 | 8.74298 | 28425 ft | 471 kts | 3° |
| 2026-05-06 05:04 | 44.29084 | 8.74713 | 28797 ft | 470 kts | 358° |
| 2026-05-06 05:05 | 44.32346 | 8.74979 | 29113 ft | 473 kts | 358° |
| 2026-05-06 05:05 | 44.35609 | 8.75286 | 29458 ft | 476 kts | 359° |
| 2026-05-06 05:05 | 44.38906 | 8.75664 | 29745 ft | 481 kts | 360° |
| 2026-05-06 05:05 | 44.42244 | 8.76112 | 30056 ft | 484 kts | 0° |
| 2026-05-06 05:06 | 44.46714 | 8.76765 | 30430 ft | 488 kts | 1° |
| 2026-05-06 05:06 | 44.48971 | 8.77110 | 30631 ft | 490 kts | 1° |
| 2026-05-06 05:06 | 44.52351 | 8.77637 | 30939 ft | 492 kts | 1° |
| 2026-05-06 05:06 | 44.55750 | 8.78175 | 31234 ft | 494 kts | 1° |
| 2026-05-06 05:07 | 44.60305 | 8.78896 | 31742 ft | 493 kts | 1° |
| 2026-05-06 05:07 | 44.63700 | 8.79435 | 32135 ft | 493 kts | 1° |
| 2026-05-06 05:07 | 44.67093 | 8.79975 | 32490 ft | 493 kts | 1° |
| 2026-05-06 05:07 | 44.69353 | 8.80335 | 32736 ft | 493 kts | 1° |
| 2026-05-06 05:08 | 44.72751 | 8.80878 | 33124 ft | 492 kts | 1° |
| 2026-05-06 05:08 | 44.76151 | 8.81421 | 33519 ft | 490 kts | 1° |
| 2026-05-06 05:08 | 44.80638 | 8.82134 | 33974 ft | 490 kts | 1° |
| 2026-05-06 05:08 | 44.82909 | 8.82499 | 34189 ft | 490 kts | 1° |
| 2026-05-06 05:09 | 44.86283 | 8.83039 | 34534 ft | 489 kts | 1° |
| 2026-05-06 05:09 | 44.89624 | 8.83573 | 34824 ft | 488 kts | 1° |
| 2026-05-06 05:09 | 44.92999 | 8.84113 | 35101 ft | 487 kts | 1° |
| 2026-05-06 05:09 | 44.97470 | 8.84833 | 35478 ft | 485 kts | 1° |
| 2026-05-06 05:10 | 44.99709 | 8.85192 | 35660 ft | 484 kts | 1° |
| 2026-05-06 05:10 | 45.03062 | 8.85732 | 35937 ft | 482 kts | 1° |
| 2026-05-06 05:10 | 45.06353 | 8.86262 | 36174 ft | 481 kts | 2° |
| 2026-05-06 05:10 | 45.09701 | 8.86800 | 36409 ft | 480 kts | 2° |
| 2026-05-06 05:11 | 45.14084 | 8.87509 | 36676 ft | 481 kts | 2° |
| 2026-05-06 05:11 | 45.16306 | 8.87869 | 36791 ft | 482 kts | 1° |
| 2026-05-06 05:11 | 45.19616 | 8.88405 | 36977 ft | 482 kts | 1° |
| 2026-05-06 05:11 | 45.24074 | 8.89125 | 37227 ft | 483 kts | 2° |
| 2026-05-06 05:12 | 45.26264 | 8.89479 | 37360 ft | 483 kts | 2° |
| 2026-05-06 05:12 | 45.29616 | 8.90026 | 37544 ft | 483 kts | 2° |
| 2026-05-06 05:12 | 45.32968 | 8.90572 | 37731 ft | 483 kts | 2° |
| 2026-05-06 05:12 | 45.36260 | 8.91108 | 37865 ft | 484 kts | 2° |
| 2026-05-06 05:13 | 45.39636 | 8.91657 | 37869 ft | 484 kts | 2° |
| 2026-05-06 05:13 | 45.46296 | 8.92745 | 37882 ft | 484 kts | 2° |
| 2026-05-06 05:14 | 45.52966 | 8.93836 | 37866 ft | 483 kts | 2° |
| 2026-05-06 05:14 | 45.59617 | 8.94927 | 37881 ft | 482 kts | 3° |
| 2026-05-06 05:15 | 45.67368 | 8.96203 | 37868 ft | 483 kts | 2° |
| 2026-05-06 05:15 | 45.72926 | 8.97121 | 37877 ft | 482 kts | 3° |
| 2026-05-06 05:16 | 45.79573 | 8.98221 | 37882 ft | 481 kts | 2° |
| 2026-05-06 05:16 | 45.86182 | 8.99318 | 37877 ft | 481 kts | 2° |
| 2026-05-06 05:17 | 45.92796 | 9.00413 | 37879 ft | 479 kts | 3° |
| 2026-05-06 05:17 | 45.99421 | 9.01514 | 37878 ft | 480 kts | 3° |
| 2026-05-06 05:18 | 46.06068 | 9.02623 | 37878 ft | 480 kts | 3° |
| 2026-05-06 05:18 | 46.12662 | 9.03721 | 37883 ft | 480 kts | 2° |
| 2026-05-06 05:19 | 46.20409 | 9.04150 | 37887 ft | 476 kts | 355° |
| 2026-05-06 05:19 | 46.25935 | 9.03915 | 37880 ft | 476 kts | 354° |
| 2026-05-06 05:20 | 46.33627 | 9.03548 | 37876 ft | 477 kts | 354° |
| 2026-05-06 05:20 | 46.39101 | 9.03301 | 37873 ft | 476 kts | 354° |
| 2026-05-06 05:21 | 46.45705 | 9.03011 | 37873 ft | 476 kts | 354° |
| 2026-05-06 05:21 | 46.52367 | 9.02718 | 37852 ft | 476 kts | 354° |
| 2026-05-06 05:22 | 46.60074 | 9.02382 | 37853 ft | 476 kts | 354° |
| 2026-05-06 05:22 | 46.65568 | 9.02141 | 37850 ft | 476 kts | 354° |
| 2026-05-06 05:23 | 46.73307 | 9.01800 | 37861 ft | 477 kts | 355° |
| 2026-05-06 05:23 | 46.82141 | 9.01412 | 37855 ft | 479 kts | 355° |
| 2026-05-06 05:24 | 46.88771 | 9.01124 | 37846 ft | 478 kts | 355° |
| 2026-05-06 05:24 | 46.95432 | 9.00829 | 37836 ft | 477 kts | 355° |
| 2026-05-06 05:25 | 47.02032 | 9.00537 | 37830 ft | 478 kts | 355° |
| 2026-05-06 05:25 | 47.08692 | 9.00243 | 37840 ft | 477 kts | 355° |
| 2026-05-06 05:26 | 47.15289 | 8.99950 | 37821 ft | 476 kts | 355° |
| 2026-05-06 05:26 | 47.23042 | 8.99602 | 37841 ft | 477 kts | 355° |
| 2026-05-06 05:27 | 47.29652 | 8.99307 | 37834 ft | 478 kts | 355° |
| 2026-05-06 05:27 | 47.35173 | 8.99059 | 37851 ft | 477 kts | 355° |
| 2026-05-06 05:28 | 47.41793 | 8.98762 | 37842 ft | 477 kts | 355° |
| 2026-05-06 05:28 | 47.49521 | 8.98415 | 37849 ft | 477 kts | 355° |
| 2026-05-06 05:29 | 47.55025 | 8.98167 | 37835 ft | 476 kts | 355° |
| 2026-05-06 05:29 | 47.61650 | 8.97867 | 37832 ft | 475 kts | 355° |
| 2026-05-06 05:30 | 47.68222 | 8.97569 | 37826 ft | 475 kts | 355° |
| 2026-05-06 05:30 | 47.75892 | 8.97219 | 37823 ft | 475 kts | 355° |
| 2026-05-06 05:31 | 47.81424 | 8.96965 | 37810 ft | 474 kts | 355° |
| 2026-05-06 05:31 | 47.87983 | 8.96666 | 37822 ft | 474 kts | 355° |
| 2026-05-06 05:32 | 47.94584 | 8.96363 | 37794 ft | 474 kts | 355° |
| 2026-05-06 05:32 | 48.02204 | 8.96012 | 37802 ft | 474 kts | 355° |
| 2026-05-06 05:33 | 48.08761 | 8.95708 | 37807 ft | 473 kts | 355° |
| 2026-05-06 05:33 | 48.14247 | 8.95467 | 37366 ft | 477 kts | 356° |
| 2026-05-06 05:34 | 48.18672 | 8.95650 | 36686 ft | 482 kts | 1° |
| 2026-05-06 05:34 | 48.22009 | 8.96086 | 36034 ft | 485 kts | 3° |
| 2026-05-06 05:34 | 48.24263 | 8.96429 | 35595 ft | 486 kts | 3° |
| 2026-05-06 05:34 | 48.27581 | 8.96956 | 34945 ft | 487 kts | 3° |
| 2026-05-06 05:35 | 48.32066 | 8.97663 | 34034 ft | 489 kts | 3° |
| 2026-05-06 05:35 | 48.34354 | 8.98018 | 33534 ft | 490 kts | 3° |
| 2026-05-06 05:35 | 48.37698 | 8.98531 | 32780 ft | 493 kts | 3° |
| 2026-05-06 05:35 | 48.41129 | 8.99052 | 31956 ft | 496 kts | 2° |
| 2026-05-06 05:36 | 48.45727 | 8.99750 | 30790 ft | 502 kts | 2° |
| 2026-05-06 05:36 | 48.47986 | 9.00095 | 30188 ft | 499 kts | 2° |
| 2026-05-06 05:36 | 48.51384 | 9.00619 | 29286 ft | 486 kts | 2° |
| 2026-05-06 05:36 | 48.54704 | 9.01129 | 28339 ft | 478 kts | 2° |
| 2026-05-06 05:37 | 48.57998 | 9.01633 | 27786 ft | 470 kts | 2° |
| 2026-05-06 05:37 | 48.61211 | 9.02125 | 27301 ft | 462 kts | 2° |
| 2026-05-06 05:37 | 48.64371 | 9.02726 | 26819 ft | 456 kts | 5° |
| 2026-05-06 05:37 | 48.68514 | 9.03691 | 26179 ft | 447 kts | 6° |
| 2026-05-06 05:38 | 48.70506 | 9.04175 | 25870 ft | 443 kts | 6° |
| 2026-05-06 05:38 | 48.74542 | 9.05156 | 25239 ft | 434 kts | 6° |
| 2026-05-06 05:38 | 48.76492 | 9.05626 | 24937 ft | 430 kts | 6° |
| 2026-05-06 05:38 | 48.79433 | 9.06331 | 24488 ft | 424 kts | 6° |
| 2026-05-06 05:39 | 48.83275 | 9.07251 | 23881 ft | 416 kts | 5° |
| 2026-05-06 05:39 | 48.85140 | 9.07698 | 23578 ft | 412 kts | 6° |
| 2026-05-06 05:39 | 48.87973 | 9.08352 | 23106 ft | 407 kts | 5° |
| 2026-05-06 05:39 | 48.91678 | 9.08955 | 22473 ft | 401 kts | 2° |
| 2026-05-06 05:40 | 48.93537 | 9.09215 | 22146 ft | 399 kts | 2° |
| 2026-05-06 05:40 | 48.97188 | 9.09718 | 21500 ft | 395 kts | 3° |
| 2026-05-06 05:40 | 48.99004 | 9.09971 | 21174 ft | 393 kts | 3° |
| 2026-05-06 05:40 | 49.01700 | 9.10353 | 20685 ft | 391 kts | 3° |
| 2026-05-06 05:41 | 49.04383 | 9.10734 | 20189 ft | 389 kts | 4° |
| 2026-05-06 05:41 | 49.07069 | 9.11116 | 19693 ft | 387 kts | 4° |
| 2026-05-06 05:41 | 49.09735 | 9.11497 | 19198 ft | 385 kts | 4° |
| 2026-05-06 05:41 | 49.13274 | 9.12002 | 18553 ft | 383 kts | 4° |
| 2026-05-06 05:42 | 49.15058 | 9.12257 | 18234 ft | 381 kts | 4° |
| 2026-05-06 05:42 | 49.17667 | 9.12632 | 17755 ft | 379 kts | 4° |
| 2026-05-06 05:42 | 49.20287 | 9.13011 | 17271 ft | 377 kts | 4° |
| 2026-05-06 05:42 | 49.22867 | 9.13382 | 16799 ft | 375 kts | 4° |
| 2026-05-06 05:43 | 49.25462 | 9.13755 | 16319 ft | 374 kts | 4° |
| 2026-05-06 05:43 | 49.28030 | 9.14208 | 15839 ft | 373 kts | 7° |
| 2026-05-06 05:43 | 49.30593 | 9.14937 | 15325 ft | 372 kts | 11° |
| 2026-05-06 05:43 | 49.33092 | 9.15801 | 14811 ft | 372 kts | 12° |
| 2026-05-06 05:44 | 49.35606 | 9.16701 | 14296 ft | 371 kts | 12° |
| 2026-05-06 05:44 | 49.38115 | 9.17603 | 13783 ft | 370 kts | 12° |
| 2026-05-06 05:44 | 49.40604 | 9.18495 | 13280 ft | 368 kts | 12° |
| 2026-05-06 05:44 | 49.43902 | 9.19672 | 12597 ft | 367 kts | 11° |
| 2026-05-06 05:45 | 49.45557 | 9.20261 | 12252 ft | 366 kts | 11° |
| 2026-05-06 05:45 | 49.48858 | 9.21436 | 11568 ft | 365 kts | 11° |
| 2026-05-06 05:45 | 49.50493 | 9.22018 | 11228 ft | 364 kts | 11° |
| 2026-05-06 05:45 | 49.52945 | 9.22892 | 10714 ft | 362 kts | 11° |
| 2026-05-06 05:46 | 49.55356 | 9.23752 | 10595 ft | 348 kts | 11° |
| 2026-05-06 05:46 | 49.57677 | 9.24583 | 10614 ft | 342 kts | 11° |
| 2026-05-06 05:46 | 49.60017 | 9.25417 | 10634 ft | 343 kts | 11° |
| 2026-05-06 05:46 | 49.63106 | 9.26521 | 10660 ft | 343 kts | 11° |
| 2026-05-06 05:47 | 49.65411 | 9.27346 | 10663 ft | 343 kts | 11° |
| 2026-05-06 05:47 | 49.66966 | 9.27905 | 10439 ft | 344 kts | 11° |
| 2026-05-06 05:47 | 49.69281 | 9.28737 | 10098 ft | 338 kts | 11° |
| 2026-05-06 05:47 | 49.71549 | 9.29553 | 9850 ft | 330 kts | 10° |
| 2026-05-06 05:48 | 49.73731 | 9.30340 | 9788 ft | 316 kts | 10° |
| 2026-05-06 05:48 | 49.75820 | 9.31095 | 9783 ft | 305 kts | 10° |
| 2026-05-06 05:48 | 49.77891 | 9.31840 | 9782 ft | 304 kts | 10° |
| 2026-05-06 05:48 | 49.80625 | 9.32822 | 9782 ft | 304 kts | 10° |
| 2026-05-06 05:49 | 49.81997 | 9.33289 | 9780 ft | 304 kts | 6° |
| 2026-05-06 05:49 | 49.84728 | 9.33037 | 9690 ft | 291 kts | 342° |
| 2026-05-06 05:49 | 49.86030 | 9.32502 | 9440 ft | 291 kts | 340° |
| 2026-05-06 05:49 | 49.88594 | 9.31330 | 9077 ft | 285 kts | 339° |
| 2026-05-06 05:50 | 49.89846 | 9.30745 | 8940 ft | 280 kts | 339° |
| 2026-05-06 05:50 | 49.91711 | 9.29872 | 8633 ft | 278 kts | 339° |
| 2026-05-06 05:50 | 49.94163 | 9.28721 | 8191 ft | 276 kts | 339° |
| 2026-05-06 05:50 | 49.95994 | 9.27854 | 7864 ft | 274 kts | 339° |
| 2026-05-06 05:51 | 49.97198 | 9.27284 | 7706 ft | 268 kts | 339° |
| 2026-05-06 05:51 | 49.98946 | 9.26465 | 7418 ft | 260 kts | 339° |
| 2026-05-06 05:51 | 50.00664 | 9.25661 | 6998 ft | 258 kts | 339° |
| 2026-05-06 05:51 | 50.02380 | 9.24854 | 6564 ft | 256 kts | 339° |
| 2026-05-06 05:52 | 50.04081 | 9.24054 | 6155 ft | 255 kts | 339° |
| 2026-05-06 05:52 | 50.06330 | 9.22998 | 5746 ft | 253 kts | 339° |
| 2026-05-06 05:52 | 50.07432 | 9.22433 | 5540 ft | 250 kts | 332° |
| 2026-05-06 05:52 | 50.09060 | 9.20120 | 5091 ft | 237 kts | 293° |
| 2026-05-06 05:53 | 50.09404 | 9.18553 | 4897 ft | 232 kts | 279° |
| 2026-05-06 05:53 | 50.09704 | 9.16071 | 4735 ft | 238 kts | 278° |
| 2026-05-06 05:53 | 50.10004 | 9.13525 | 4610 ft | 241 kts | 278° |
| 2026-05-06 05:53 | 50.10407 | 9.10123 | 4442 ft | 241 kts | 278° |
| 2026-05-06 05:54 | 50.10710 | 9.07562 | 4330 ft | 241 kts | 278° |
| 2026-05-06 05:54 | 50.11012 | 9.05020 | 4264 ft | 241 kts | 278° |
| 2026-05-06 05:54 | 50.11213 | 9.03315 | 4212 ft | 239 kts | 277° |
| 2026-05-06 05:54 | 50.11506 | 9.00844 | 4131 ft | 228 kts | 277° |
| 2026-05-06 05:55 | 50.11787 | 8.98475 | 4051 ft | 220 kts | 277° |
| 2026-05-06 05:55 | 50.12061 | 8.96147 | 4006 ft | 219 kts | 277° |
| 2026-05-06 05:55 | 50.12122 | 8.93020 | 3997 ft | 217 kts | 257° |
| 2026-05-06 05:55 | 50.11670 | 8.90798 | 3997 ft | 217 kts | 249° |
| 2026-05-06 05:56 | 50.11136 | 8.88601 | 3993 ft | 216 kts | 249° |
| 2026-05-06 05:56 | 50.10776 | 8.87126 | 3993 ft | 217 kts | 249° |
| 2026-05-06 05:56 | 50.10261 | 8.84934 | 3949 ft | 218 kts | 250° |
| 2026-05-06 05:56 | 50.09765 | 8.82698 | 3616 ft | 220 kts | 250° |
| 2026-05-06 05:57 | 50.09256 | 8.80480 | 3275 ft | 216 kts | 249° |
| 2026-05-06 05:57 | 50.08573 | 8.77614 | 2884 ft | 206 kts | 249° |
| 2026-05-06 05:57 | 50.08246 | 8.76264 | 2703 ft | 200 kts | 249° |
| 2026-05-06 05:57 | 50.07767 | 8.74289 | 2525 ft | 185 kts | 249° |
| 2026-05-06 05:58 | 50.07343 | 8.72539 | 2265 ft | 166 kts | 248° |
| 2026-05-06 05:58 | 50.06959 | 8.70945 | 2053 ft | 149 kts | 248° |
| 2026-05-06 05:58 | 50.06608 | 8.69492 | 1822 ft | 138 kts | 248° |
| 2026-05-06 05:58 | 50.06169 | 8.67669 | 1579 ft | 135 kts | 248° |
| 2026-05-06 05:59 | 50.05953 | 8.66769 | 1464 ft | 135 kts | 248° |
| 2026-05-06 05:59 | 50.05528 | 8.65002 | 1247 ft | 134 kts | 248° |
| 2026-05-06 05:59 | 50.05318 | 8.64131 | 1134 ft | 134 kts | 248° |
| 2026-05-06 05:59 | 50.05019 | 8.62882 | 972 ft | 133 kts | 248° |
| 2026-05-06 06:00 | 50.04680 | 8.61464 | 783 ft | 133 kts | 248° |
| 2026-05-06 06:00 | 50.04430 | 8.60422 | 643 ft | 132 kts | 248° |
| 2026-05-06 06:00 | 50.03873 | 8.58069 | 365 ft | 127 kts | 248° |
| 2026-05-06 06:01 | 50.03581 | 8.56878 | 342 ft | 75 kts | 250° |
| 2026-05-06 06:01 | 50.03447 | 8.56319 | 339 ft | 41 kts | 251° |
| 2026-05-06 06:01 | 50.03443 | 8.56014 | 337 ft | 25 kts | 279° |
| 2026-05-06 06:01 | 50.03471 | 8.55747 | 337 ft | 24 kts | 279° |
| 2026-05-06 06:02 | 50.03493 | 8.55495 | 336 ft | 22 kts | 263° |
| 2026-05-06 06:02 | 50.03442 | 8.55265 | 335 ft | 22 kts | 251° |
| 2026-05-06 06:02 | 50.03389 | 8.55040 | 334 ft | 22 kts | 249° |
| 2026-05-06 06:02 | 50.03337 | 8.54822 | 333 ft | 21 kts | 251° |
| 2026-05-06 06:03 | 50.03292 | 8.54634 | 332 ft | 15 kts | 250° |
| 2026-05-06 06:03 | 50.03283 | 8.54514 | 330 ft | 10 kts | 302° |
| 2026-05-06 06:03 | 50.03349 | 8.54459 | 330 ft | 11 kts | 339° |
| 2026-05-06 06:03 | 50.03423 | 8.54416 | 332 ft | 11 kts | 340° |
| 2026-05-06 06:04 | 50.03493 | 8.54376 | 333 ft | 10 kts | 340° |
| 2026-05-06 06:04 | 50.03563 | 8.54336 | 335 ft | 10 kts | 340° |
| 2026-05-06 06:04 | 50.03630 | 8.54310 | 336 ft | 9 kts | 10° |
| 2026-05-06 06:04 | 50.03678 | 8.54401 | 337 ft | 13 kts | 69° |
| 2026-05-06 06:05 | 50.03715 | 8.54556 | 338 ft | 17 kts | 70° |
| 2026-05-06 06:05 | 50.03760 | 8.54748 | 340 ft | 19 kts | 70° |
| 2026-05-06 06:05 | 50.03807 | 8.54945 | 343 ft | 19 kts | 69° |
| 2026-05-06 06:05 | 50.03857 | 8.55149 | 347 ft | 19 kts | 70° |
| 2026-05-06 06:06 | 50.03904 | 8.55344 | 348 ft | 19 kts | 69° |
| 2026-05-06 06:06 | 50.03956 | 8.55561 | 348 ft | 22 kts | 70° |
| 2026-05-06 06:06 | 50.04008 | 8.55782 | 348 ft | 22 kts | 70° |
| 2026-05-06 06:06 | 50.04047 | 8.55940 | 350 ft | 9 kts | 60° |
| 2026-05-06 06:07 | 50.04100 | 8.55967 | 352 ft | 8 kts | 345° |
| 2026-05-06 06:07 | 50.04156 | 8.55935 | 353 ft | 8 kts | 339° |
| 2026-05-06 06:07 | 50.04208 | 8.55915 | 355 ft | 7 kts | 7° |
| 2026-05-06 06:07 | 50.04252 | 8.55993 | 356 ft | 14 kts | 69° |
| 2026-05-06 06:08 | 50.04296 | 8.56177 | 359 ft | 21 kts | 70° |
| 2026-05-06 06:08 | 50.04348 | 8.56395 | 361 ft | 20 kts | 70° |
| 2026-05-06 06:08 | 50.04394 | 8.56587 | 364 ft | 18 kts | 70° |
| 2026-05-06 06:08 | 50.04436 | 8.56766 | 367 ft | 16 kts | 70° |
| 2026-05-06 06:09 | 50.04476 | 8.56862 | 369 ft | 9 kts | 22° |
| 2026-05-06 06:09 | 50.04539 | 8.56886 | 370 ft | 9 kts | 13° |
| 2026-05-06 06:09 | 50.04600 | 8.56908 | 371 ft | 9 kts | 14° |
| 2026-05-06 06:09 | 50.04669 | 8.56946 | 373 ft | 10 kts | 24° |
| 2026-05-06 06:10 | 50.04739 | 8.56995 | 374 ft | 10 kts | 25° |
| 2026-05-06 06:10 | 50.04797 | 8.57037 | 375 ft | 8 kts | 25° |
| 2026-05-06 06:10 | 50.04847 | 8.57071 | 376 ft | 7 kts | 25° |
| 2026-05-06 06:10 | 50.04886 | 8.57079 | 377 ft | 4 kts | 345° |
| 2026-05-06 06:11 | 50.04911 | 8.57065 | 378 ft | 1 kts | 341° |
| 2026-05-06 06:11 | 50.04917 | 8.57066 | 378 ft | 0 kts | 30° |
| 2026-05-06 06:11 | 50.04919 | 8.57074 | 378 ft | 0 kts | 84° |
| 2026-05-06 06:11 | 50.04918 | 8.57079 | 378 ft | 0 kts | 98° |